Time;durP1;ratioP1;P1;durP2;ratioP2;P2;SDS_P1;SDS_P2;PMS_P1;PMS_P2;Temp;Humidity;BMP_temperature;BMP_pressure;BME280_temperature;BME280_humidity;BME280_pressure;Samples;Min_cycle;Max_cycle;Signal;HPM_P1;HPM_P2
2023/01/02 09:03:02;;;;;;;;;0.00;0.00;;;;;13.06;100.00;101710.06;5482606;23;50040;-74
2023/01/02 09:05:29;;;;;;;;;0.00;0.00;;;;;12.19;100.00;101552.34;4900025;28;50010;-80
2023/01/02 09:07:55;;;;;;;;;0.00;0.00;;;;;13.01;100.00;101703.75;4903298;28;50909;-70
2023/01/02 09:10:21;;;;;;;;;0.00;0.00;;;;;13.07;100.00;101714.47;4901719;28;49934;-71
2023/01/02 09:12:46;;;;;;;;;0.00;0.00;;;;;13.08;100.00;101721.53;4901784;28;50216;-71
2023/01/02 09:15:12;;;;;;;;;0.00;0.00;;;;;11.66;100.00;101485.94;4885777;28;50055;-71
2023/01/02 09:17:37;;;;;;;;;0.50;0.50;;;;;13.07;100.00;101730.28;4909180;28;49881;-70
2023/01/02 09:20:03;;;;;;;;;0.75;0.75;;;;;12.60;100.00;101661.41;4905295;28;49783;-71
2023/01/02 09:22:28;;;;;;;;;0.00;0.00;;;;;13.02;100.00;101720.47;4907016;28;49987;-68
2023/01/02 09:24:53;;;;;;;;;0.00;0.00;;;;;13.04;100.00;101708.25;4905520;28;49815;-72
2023/01/02 09:27:19;;;;;;;;;1.00;0.00;;;;;13.06;100.00;101698.63;4898465;28;49916;-69
2023/01/02 09:29:44;;;;;;;;;0.00;0.00;;;;;13.06;100.00;101699.50;4909930;28;49864;-70
2023/01/02 09:32:09;;;;;;;;;0.00;0.00;;;;;13.15;100.00;101719.94;4909486;28;53132;-72
2023/01/02 09:34:35;;;;;;;;;0.00;0.00;;;;;11.84;100.00;101511.91;4910277;28;49689;-75
2023/01/02 09:37:00;;;;;;;;;0.00;0.00;;;;;11.85;100.00;101508.44;4905658;28;50313;-74
2023/01/02 09:39:25;;;;;;;;;0.00;0.00;;;;;13.17;100.00;101745.50;4898928;28;49717;-76
2023/01/02 09:41:59;;;;;;;;;1.00;0.75;;;;;11.79;100.00;101529.28;4898426;28;49952;-74
2023/01/02 09:44:40;;;;;;;;;0.00;0.00;;;;;12.74;100.00;101695.13;4899406;28;49971;-68
2023/01/02 09:47:20;;;;;;;;;0.00;0.00;;;;;13.13;100.00;101740.13;4881540;29;52301;-71
2023/01/02 09:49:48;;;;;;;;;1.75;0.00;;;;;13.12;100.00;101728.69;4901217;28;49712;-70
2023/01/02 09:52:35;;;;;;;;;0.50;0.50;;;;;12.47;100.00;101661.94;4902065;28;49799;-74
2023/01/02 09:55:01;;;;;;;;;0.00;0.00;;;;;12.10;100.00;101595.97;4915685;28;49561;-69
2023/01/02 09:57:26;;;;;;;;;0.00;0.00;;;;;13.25;100.00;101782.66;4914989;28;50705;-68
2023/01/02 10:00:01;;;;;;;;;0.00;0.00;;;;;13.21;100.00;101786.03;4914218;28;49879;-69
2023/01/02 10:02:36;;;;;;;;;1.00;0.00;;;;;13.21;100.00;101803.59;4915489;28;49895;-70
2023/01/02 10:05:24;;;;;;;;;1.00;1.00;;;;;13.17;100.00;101803.50;4895213;28;50333;-70
2023/01/02 10:08:07;;;;;;;;;0.00;0.00;;;;;13.16;100.00;101809.63;4898054;28;50446;-70
2023/01/02 10:10:39;;;;;;;;;0.00;0.00;;;;;12.89;100.00;101756.16;4912888;28;49692;-70
2023/01/02 10:13:32;;;;;;;;;0.00;0.00;;;;;13.14;100.00;101794.63;4919366;28;49491;-70
2023/01/02 10:16:02;;;;;;;;;0.00;0.00;;;;;13.13;100.00;101796.38;4917516;28;50015;-69
2023/01/02 10:18:31;;;;;;;;;1.00;0.00;;;;;13.10;100.00;101788.34;4916117;28;51235;-72
2023/01/02 10:21:02;;;;;;;;;1.75;0.25;;;;;12.86;100.00;101741.16;4902740;28;49740;-72
2023/01/02 10:23:58;;;;;;;;;0.00;0.00;;;;;13.23;100.00;101813.38;4899619;28;50001;-70
2023/01/02 10:26:32;;;;;;;;;0.00;0.00;;;;;13.24;100.00;101770.31;4913353;28;49969;-71
2023/01/02 10:29:26;;;;;;;;;0.00;0.00;;;;;13.13;100.00;101753.28;4917358;28;49960;-72
2023/01/02 10:31:59;;;;;;;;;0.00;0.00;;;;;13.46;100.00;101783.19;4915609;28;49701;-72
2023/01/02 10:34:28;;;;;;;;;0.00;0.00;;;;;13.49;100.00;101776.19;4918893;28;49860;-71
2023/01/02 10:36:54;;;;;;;;;0.00;0.00;;;;;12.33;100.00;101593.09;4916636;28;49913;-70
2023/01/02 10:39:23;;;;;;;;;1.00;0.50;;;;;13.34;100.00;101763.53;4915698;28;50199;-72
2023/01/02 10:41:53;;;;;;;;;1.00;0.25;;;;;12.91;100.00;101712.28;4915994;28;49830;-73
2023/01/02 10:44:34;;;;;;;;;0.75;0.75;;;;;13.56;100.00;101804.53;4900989;28;50222;-71
2023/01/02 10:47:18;;;;;;;;;1.00;1.00;;;;;13.54;100.00;101790.41;4899721;28;49978;-70
2023/01/02 10:49:44;;;;;;;;;1.00;1.00;;;;;13.07;100.00;101738.19;4896163;28;49866;-73
2023/01/02 10:52:31;;;;;;;;;2.50;2.50;;;;;12.74;100.00;101653.91;4901358;28;49753;-70
2023/01/02 10:54:58;;;;;;;;;0.00;0.00;;;;;13.10;100.00;101740.00;4899746;28;49708;-70
2023/01/02 10:58:01;;;;;;;;;0.00;0.00;;;;;13.64;100.00;101822.34;4902336;28;49789;-70
2023/01/02 11:00:29;;;;;;;;;0.00;0.00;;;;;13.10;100.00;101751.44;4838939;29;50066;-73
2023/01/02 11:03:04;;;;;;;;;1.00;1.00;;;;;12.84;100.00;101715.63;4885563;28;50070;-72
2023/01/02 11:05:30;;;;;;;;;1.00;1.00;;;;;13.79;100.00;101840.28;4916519;28;50675;-73
2023/01/02 11:07:56;;;;;;;;;1.00;1.00;;;;;12.87;100.00;101694.63;4920723;28;49930;-73
2023/01/02 11:10:26;;;;;;;;;1.00;1.00;;;;;13.88;100.00;101842.25;4916528;28;49966;-73
2023/01/02 11:12:52;;;;;;;;;0.75;0.75;;;;;13.25;100.00;101732.53;4924214;28;49913;-72
2023/01/02 11:15:26;;;;;;;;;1.00;1.00;;;;;13.27;100.00;101743.13;4918006;28;49631;-73
2023/01/02 11:17:52;;;;;;;;;0.00;0.00;;;;;13.70;100.00;101809.31;4914891;28;49837;-69
2023/01/02 11:20:23;;;;;;;;;0.00;0.00;;;;;13.41;100.00;101757.53;4915494;28;50588;-71
2023/01/02 11:22:49;;;;;;;;;0.00;0.00;;;;;14.01;100.00;101852.28;4917963;28;49869;-72
2023/01/02 11:25:27;;;;;;;;;0.00;0.00;;;;;13.89;100.00;101810.63;4917796;28;49408;-72
2023/01/02 11:27:57;;;;;;;;;1.00;1.00;;;;;13.02;100.00;101675.66;4917347;28;49586;-72
2023/01/02 11:30:35;;;;;;;;;0.50;0.50;;;;;13.19;100.00;101698.09;4916097;28;50169;-71
2023/01/02 11:33:23;;;;;;;;;0.00;0.00;;;;;14.26;100.00;101837.88;4910796;28;49856;-71
2023/01/02 11:36:03;;;;;;;;;0.00;0.00;;;;;14.22;100.00;101847.50;4896845;28;50031;-72
2023/01/02 11:38:45;;;;;;;;;1.75;0.75;;;;;14.36;100.00;101844.25;4912617;28;50027;-73
2023/01/02 11:44:38;;;;;;;;;0.00;0.00;;;;;14.10;100.00;101846.31;4894192;28;50157;-71
2023/01/02 11:47:07;;;;;;;;;1.00;1.00;;;;;13.26;100.00;101686.84;4893983;28;49818;-74
2023/01/02 11:49:42;;;;;;;;;1.00;1.00;;;;;13.78;100.00;101801.56;4897183;28;49748;-71
2023/01/02 11:52:13;;;;;;;;;0.00;0.00;;;;;13.68;100.00;101775.78;4893929;28;51101;-72
2023/01/02 11:54:51;;;;;;;;;2.00;1.00;;;;;14.28;100.00;101866.13;4893985;28;49863;-71
2023/01/02 11:57:45;;;;;;;;;0.00;0.00;;;;;14.40;100.00;101881.38;4906622;28;49720;-70
2023/01/02 12:00:13;;;;;;;;;0.00;0.00;;;;;13.67;100.00;101768.75;4912304;28;50005;-72
2023/01/02 12:02:48;;;;;;;;;1.25;1.00;;;;;14.14;100.00;101820.00;4911630;28;51230;-70
2023/01/02 12:05:23;;;;;;;;;0.00;0.00;;;;;13.97;100.00;101795.84;4912124;28;49730;-70
2023/01/02 12:07:54;;;;;;;;;0.75;0.75;;;;;14.48;100.00;101887.75;4912275;28;49765;-71
2023/01/02 12:10:34;;;;;;;;;0.00;0.00;;;;;14.52;100.00;101888.72;4912587;28;49843;-73
2023/01/02 12:13:10;;;;;;;;;0.50;0.50;;;;;14.54;100.00;101885.25;4911783;28;52666;-72
2023/01/02 12:15:57;;;;;;;;;2.00;1.00;;;;;14.62;100.00;101895.09;4909781;28;49624;-71
2023/01/02 12:18:51;;;;;;;;;1.00;1.00;;;;;14.60;100.00;101897.72;4893690;28;49701;-69
2023/01/02 12:21:24;;;;;;;;;2.00;0.00;;;;;14.58;100.00;101902.06;4908268;28;49759;-74
2023/01/02 12:24:06;;;;;;;;;0.75;0.00;;;;;14.54;100.00;101889.63;4913957;28;51141;-72
2023/01/02 12:26:45;;;;;;;;;0.00;0.00;;;;;14.55;100.00;101888.78;4908286;28;49932;-70
2023/01/02 12:29:25;;;;;;;;;0.25;0.25;;;;;14.57;100.00;101893.25;4895063;28;50051;-73
2023/01/02 12:32:08;;;;;;;;;0.00;0.00;;;;;14.43;100.00;101873.50;4897500;28;49930;-75
2023/01/02 12:34:40;;;;;;;;;0.00;0.00;;;;;14.47;100.00;101874.50;4901883;28;50546;-83
2023/01/02 12:37:20;;;;;;;;;0.00;0.00;;;;;14.16;100.00;101835.88;4898643;28;49953;-72
2023/01/02 12:40:33;;;;;;;;;0.00;0.00;;;;;14.38;100.00;101891.00;4898022;28;49627;-76
2023/01/02 12:42:58;;;;;;;;;1.00;1.00;;;;;14.33;100.00;101893.53;4902628;28;49868;-76
2023/01/02 12:45:34;;;;;;;;;1.75;0.00;;;;;14.29;100.00;101904.91;4903505;28;50916;-74
2023/01/02 12:48:14;;;;;;;;;1.00;1.00;;;;;14.25;100.00;101915.34;4905684;28;49854;-76
2023/01/02 12:50:48;;;;;;;;;1.50;0.50;;;;;14.30;100.00;101914.59;4902938;28;51234;-79
2023/01/02 12:53:29;;;;;;;;;0.50;0.50;;;;;14.26;100.00;101914.47;4913377;28;49590;-79
2023/01/02 12:56:04;;;;;;;;;0.25;0.25;;;;;14.04;100.00;101881.38;4897531;28;51121;-71
2023/01/02 12:58:51;;;;;;;;;0.00;0.00;;;;;14.25;100.00;101917.97;4912421;28;49524;-74
2023/01/02 13:01:34;;;;;;;;;0.50;0.50;;;;;14.20;100.00;101928.44;4928469;28;49402;-77
2023/01/02 13:04:13;;;;;;;;;0.00;0.00;;;;;13.84;100.00;101885.28;4911960;28;50022;-76
2023/01/02 13:06:53;;;;;;;;;0.00;0.00;;;;;13.99;100.00;101896.19;4927041;28;49656;-77
2023/01/02 13:09:42;;;;;;;;;0.00;0.00;;;;;13.97;100.00;101914.66;4887428;28;49802;-73
2023/01/02 13:12:14;;;;;;;;;0.00;0.00;;;;;12.84;100.00;101713.00;4905118;28;50347;-82
2023/01/02 13:14:50;;;;;;;;;0.00;0.00;;;;;14.13;100.00;101938.81;4911233;28;49511;-81
2023/01/02 13:17:43;;;;;;;;;1.75;0.00;;;;;14.10;100.00;101941.38;4926421;28;49959;-72
2023/01/02 13:20:32;;;;;;;;;0.00;0.00;;;;;14.09;100.00;101951.06;4928212;28;49489;-80
2023/01/02 13:23:11;;;;;;;;;0.50;0.50;;;;;14.02;100.00;101959.66;4927135;28;49578;-73
2023/01/02 13:25:44;;;;;;;;;0.00;0.00;;;;;13.98;100.00;101956.03;4907982;28;49686;-70
2023/01/02 13:28:11;;;;;;;;;0.00;0.00;;;;;13.80;100.00;101938.81;4925590;28;50267;-69
2023/01/02 13:30:43;;;;;;;;;0.00;0.00;;;;;13.89;100.00;101968.09;4922244;28;49648;-70
2023/01/02 13:33:20;;;;;;;;;0.00;0.00;;;;;13.88;100.00;101972.50;4921534;28;50004;-71
2023/01/02 13:35:46;;;;;;;;;0.00;0.00;;;;;13.68;100.00;101932.38;4915100;28;49800;-75
2023/01/02 13:38:15;;;;;;;;;0.00;0.00;;;;;13.89;100.00;101970.75;4919962;28;49856;-71
2023/01/02 13:40:41;;;;;;;;;0.00;0.00;;;;;13.71;100.00;101953.59;4927361;28;49365;-70
2023/01/02 13:43:15;;;;;;;;;0.00;0.00;;;;;13.64;100.00;101934.91;4927071;28;49600;-70
2023/01/02 13:45:49;;;;;;;;;1.00;0.00;;;;;13.51;100.00;101917.84;4929048;28;49385;-70
2023/01/02 13:48:30;;;;;;;;;0.50;0.50;;;;;13.88;100.00;101983.03;4925080;28;49694;-76
2023/01/02 13:51:02;;;;;;;;;0.25;0.00;;;;;13.85;100.00;101956.59;4912211;28;49673;-70
2023/01/02 13:53:44;;;;;;;;;1.00;0.00;;;;;14.03;100.00;101986.09;4906140;28;49756;-70
2023/01/02 13:56:15;;;;;;;;;0.00;0.00;;;;;13.89;100.00;101958.44;4898083;28;49702;-69
2023/01/02 13:58:42;;;;;;;;;0.00;0.00;;;;;14.09;100.00;101980.09;4898952;28;50749;-70
2023/01/02 14:01:19;;;;;;;;;0.00;0.00;;;;;14.11;100.00;101980.13;4899315;28;49887;-70
2023/01/02 14:03:45;;;;;;;;;0.00;0.00;;;;;14.15;100.00;101987.28;4912954;28;49386;-70
2023/01/02 14:06:36;;;;;;;;;1.00;1.00;;;;;14.11;100.00;101969.56;4913381;28;49426;-70
2023/01/02 14:09:04;;;;;;;;;4.75;3.00;;;;;14.26;100.00;101981.41;4914382;28;49850;-69
2023/01/02 14:11:40;;;;;;;;;3.00;1.00;;;;;13.98;100.00;101953.41;4896272;28;49814;-70
2023/01/02 14:14:12;;;;;;;;;11.50;10.25;;;;;14.09;100.00;101971.25;4902401;28;49622;-71
2023/01/02 14:16:58;;;;;;;;;0.00;0.00;;;;;14.23;100.00;102007.75;4889814;29;49655;-71
2023/01/02 14:19:25;;;;;;;;;5.25;3.75;;;;;14.17;100.00;101998.75;4930158;28;51658;-70
2023/01/02 14:22:00;;;;;;;;;0.00;0.00;;;;;14.27;100.00;102012.25;4924469;28;49398;-70
2023/01/02 14:24:28;;;;;;;;;0.00;0.00;;;;;14.25;100.00;102011.31;4928691;28;49385;-70
2023/01/02 14:27:21;;;;;;;;;1.00;0.00;;;;;14.19;100.00;101999.72;4928446;28;49456;-71
2023/01/02 14:29:54;;;;;;;;;0.00;0.00;;;;;14.23;100.00;101999.81;4909567;28;49874;-71
2023/01/02 14:32:27;;;;;;;;;0.00;0.00;;;;;14.17;100.00;101967.97;4894264;28;49448;-71
2023/01/02 14:34:55;;;;;;;;;0.00;0.00;;;;;13.90;100.00;101901.28;4911509;28;49431;-71
2023/01/02 14:37:40;;;;;;;;;0.00;0.00;;;;;14.40;100.00;101979.13;4912191;28;49618;-70
2023/01/02 14:40:10;;;;;;;;;0.25;0.00;;;;;14.32;100.00;101986.84;4924069;28;49701;-70
2023/01/02 14:45:23;;;;;;;;;0.00;0.00;;;;;14.41;100.00;102041.66;4910829;28;49769;-70
2023/01/02 14:47:57;;;;;;;;;0.00;0.00;;;;;14.34;100.00;102055.56;4911555;28;49561;-70
2023/01/02 14:50:27;;;;;;;;;1.00;0.00;;;;;14.12;100.00;102032.09;4909793;28;50394;-71
2023/01/02 14:53:29;;;;;;;;;0.00;0.00;;;;;14.15;100.00;102070.03;4911374;28;49675;-70
2023/01/02 14:56:00;;;;;;;;;0.00;0.00;;;;;13.93;100.00;102054.47;4910223;28;49831;-70
2023/01/02 14:58:37;;;;;;;;;0.00;0.00;;;;;13.87;100.00;102038.44;4926811;28;49808;-71
2023/01/02 15:01:04;;;;;;;;;0.00;0.00;;;;;14.03;100.00;102085.53;4902355;28;50866;-78
2023/01/02 15:03:39;;;;;;;;;0.00;0.00;;;;;14.03;100.00;102083.81;4912155;28;49941;-78
2023/01/02 15:06:11;;;;;;;;;0.25;0.25;;;;;13.74;100.00;102043.38;4912616;28;49653;-71
2023/01/02 15:08:49;;;;;;;;;1.75;0.00;;;;;13.99;100.00;102086.28;4913038;28;49772;-70
2023/01/02 15:14:00;;;;;;;;;0.00;0.00;;;;;14.10;100.00;102097.19;4913003;28;49961;-70
2023/01/02 15:16:25;;;;;;;;;0.00;0.00;;;;;14.10;100.00;102095.44;4895576;28;49921;-70
2023/01/02 15:18:56;;;;;;;;;0.00;0.00;;;;;14.02;100.00;102075.84;4914897;28;49753;-70
2023/01/02 15:21:25;;;;;;;;;0.50;0.50;;;;;14.08;100.00;102101.50;4916134;28;50237;-70
2023/01/02 15:23:52;;;;;;;;;0.00;0.00;;;;;13.97;100.00;102101.19;4905501;28;49646;-70
2023/01/02 15:26:23;;;;;;;;;0.00;0.00;;;;;13.78;100.00;102078.66;4899829;28;49704;-70
2023/01/02 15:29:17;;;;;;;;;1.00;0.00;;;;;13.69;100.00;102086.31;4903120;28;49722;-70
2023/01/02 15:31:50;;;;;;;;;0.00;0.00;;;;;13.66;100.00;102110.00;4902326;28;51252;-70
2023/01/02 15:34:23;;;;;;;;;0.00;0.00;;;;;13.51;100.00;102105.16;4914283;28;49790;-69
2023/01/02 15:36:49;;;;;;;;;2.00;0.75;;;;;13.53;100.00;102123.69;4911549;28;49564;-70
2023/01/02 15:39:19;;;;;;;;;0.00;0.00;;;;;13.40;100.00;102111.84;4911859;28;49461;-69
2023/01/02 15:41:51;;;;;;;;;1.00;1.00;;;;;13.30;100.00;102120.31;4909178;28;50654;-71
2023/01/02 15:47:12;;;;;;;;;0.25;0.25;;;;;13.20;100.00;102119.13;4929764;28;49548;-73
2023/01/02 15:49:40;;;;;;;;;2.50;1.00;;;;;12.96;100.00;102092.84;4930168;28;49258;-73
2023/01/02 15:52:18;;;;;;;;;1.25;1.00;;;;;13.21;100.00;102144.66;4929807;28;49788;-72
2023/01/02 15:54:44;;;;;;;;;0.00;0.00;;;;;13.10;100.00;102140.75;4912122;28;49465;-72
2023/01/02 15:57:13;;;;;;;;;0.00;0.00;;;;;13.08;100.00;102150.34;4929634;28;49370;-73
2023/01/02 15:59:38;;;;;;;;;3.00;0.25;;;;;12.85;100.00;102123.25;4918848;28;49572;-72
2023/01/02 16:02:04;;;;;;;;;1.50;1.50;;;;;12.98;100.00;102148.25;4911547;28;50811;-71
2023/01/02 16:04:32;;;;;;;;;2.00;2.00;;;;;12.81;100.00;102140.66;4912311;28;49981;-72
2023/01/02 16:07:10;;;;;;;;;1.25;1.25;;;;;12.86;100.00;102159.28;4912301;28;49800;-72
2023/01/02 16:09:36;;;;;;;;;1.75;1.75;;;;;12.72;100.00;102145.63;4912550;28;50200;-72
2023/01/02 16:12:03;;;;;;;;;1.50;1.50;;;;;12.76;100.00;102166.00;4893887;28;49819;-70
2023/01/02 16:14:51;;;;;;;;;1.75;1.75;;;;;12.50;100.00;102130.84;4894288;28;49796;-74
2023/01/02 16:17:46;;;;;;;;;0.00;0.00;;;;;12.69;100.00;102174.53;4907838;28;49999;-76
2023/01/02 16:20:11;;;;;;;;;0.25;0.25;;;;;12.63;100.00;102173.41;4890906;28;49741;-75
2023/01/02 16:22:52;;;;;;;;;1.00;1.00;;;;;12.57;100.00;102175.00;4897128;28;51390;-75
2023/01/02 16:25:20;;;;;;;;;1.25;1.25;;;;;12.26;100.00;102138.78;4915561;28;49795;-74
2023/01/02 16:28:04;;;;;;;;;0.50;0.50;;;;;11.74;100.00;102072.78;4915379;28;49920;-74
2023/01/02 16:30:38;;;;;;;;;1.00;1.00;;;;;12.45;100.00;102194.72;4915402;28;49855;-72
2023/01/02 16:33:24;;;;;;;;;0.50;0.50;;;;;12.40;100.00;102194.56;4914682;28;49878;-73
2023/01/02 16:36:18;;;;;;;;;0.50;0.50;;;;;12.33;100.00;102196.06;4915017;28;49763;-75
2023/01/02 16:38:58;;;;;;;;;2.00;2.00;;;;;12.32;100.00;102204.81;4905404;28;50099;-78
2023/01/02 16:41:34;;;;;;;;;2.75;1.00;;;;;12.30;100.00;102210.88;4902720;28;49731;-77
2023/01/02 16:44:00;;;;;;;;;1.00;1.00;;;;;11.81;100.00;102151.13;4897437;28;50369;-77
2023/01/02 16:46:27;;;;;;;;;1.25;1.25;;;;;10.92;100.00;101996.94;4913532;28;49922;-78
2023/01/02 16:48:53;;;;;;;;;2.25;2.25;;;;;12.17;100.00;102221.81;4914485;28;49929;-78
2023/01/02 16:51:19;;;;;;;;;2.25;2.00;;;;;11.70;100.00;102161.22;4914808;28;49756;-77
2023/01/02 16:53:45;;;;;;;;;2.50;1.75;;;;;12.10;100.00;102232.94;4897404;28;52703;-78
2023/01/02 16:56:11;;;;;;;;;4.00;4.00;;;;;11.37;100.00;102117.81;4913613;28;49827;-76
2023/01/02 16:58:37;;;;;;;;;4.00;3.50;;;;;12.00;100.00;102237.84;4915208;28;49930;-76
2023/01/02 17:01:03;;;;;;;;;3.00;3.00;;;;;11.30;100.00;102143.00;4897337;28;49906;-76
2023/01/02 17:03:29;;;;;;;;;3.00;3.00;;;;;11.92;100.00;102244.53;4913390;28;49766;-77
2023/01/02 17:05:58;;;;;;;;;5.75;4.00;;;;;11.63;100.00;102218.78;4896166;28;49757;-76
2023/01/02 17:08:23;;;;;;;;;4.50;3.75;;;;;11.28;100.00;102178.81;4899774;28;49939;-76
2023/01/02 17:10:49;;;;;;;;;7.25;6.50;;;;;11.55;100.00;102205.31;4896352;28;50113;-75
2023/01/02 17:13:14;;;;;;;;;6.00;4.50;;;;;11.21;100.00;102187.31;4907120;28;52570;-76
2023/01/02 17:15:40;;;;;;;;;5.25;5.25;;;;;10.74;100.00;102091.66;4915775;28;49640;-76
2023/01/02 17:18:06;;;;;;;;;4.75;3.50;;;;;10.91;100.00;102115.13;4923558;28;49796;-76
2023/01/02 17:20:32;;;;;;;;;5.00;5.00;;;;;11.70;100.00;102258.56;4914446;28;49968;-75
2023/01/02 17:22:57;;;;;;;;;5.50;3.75;;;;;11.65;100.00;102267.97;4913709;28;54773;-72
2023/01/02 17:25:23;;;;;;;;;3.25;3.25;;;;;10.64;100.00;102089.50;4914111;28;49871;-75
2023/01/02 17:27:49;;;;;;;;;5.00;4.00;;;;;11.15;100.00;102187.06;4913681;28;49767;-74
2023/01/02 17:30:15;;;;;;;;;3.75;3.75;;;;;11.32;100.00;102230.72;4914587;28;49579;-75
2023/01/02 17:32:42;;;;;;;;;3.25;3.25;;;;;11.50;100.00;102285.78;4913319;28;49747;-74
2023/01/02 17:35:09;;;;;;;;;4.50;4.50;;;;;11.20;100.00;102239.81;4913933;28;49798;-74
2023/01/02 17:37:36;;;;;;;;;5.75;4.25;;;;;10.79;100.00;102179.41;4914274;28;49601;-75
2023/01/02 17:40:02;;;;;;;;;4.00;4.00;;;;;10.17;100.00;102069.06;4914648;28;49977;-75
2023/01/02 17:42:27;;;;;;;;;7.50;4.00;;;;;11.36;100.00;102284.31;4914050;28;49854;-73
2023/01/02 17:44:53;;;;;;;;;8.50;3.75;;;;;10.54;100.00;102173.97;4915394;28;49813;-73
2023/01/02 17:47:18;;;;;;;;;5.25;5.25;;;;;11.27;100.00;102287.44;4921109;28;49720;-80
2023/01/02 17:49:44;;;;;;;;;5.75;5.75;;;;;11.11;100.00;102270.16;4897340;28;50072;-74
2023/01/02 17:52:11;;;;;;;;;4.00;4.00;;;;;11.09;100.00;102274.41;4901390;28;50412;-75
2023/01/02 17:54:37;;;;;;;;;7.75;7.50;;;;;11.10;100.00;102285.84;4901834;28;49660;-75
2023/01/02 17:57:02;;;;;;;;;1.50;0.25;;;;;10.88;100.00;102256.00;4906772;28;49920;-74
2023/01/02 17:59:28;;;;;;;;;9.25;8.00;;;;;11.13;100.00;102312.25;4896418;28;49923;-73
2023/01/02 18:01:53;;;;;;;;;8.25;8.25;;;;;11.03;100.00;102300.44;4895335;28;49777;-74
2023/01/02 18:04:19;;;;;;;;;8.25;8.25;;;;;11.08;100.00;102321.66;4895473;28;56941;-76
2023/01/02 18:06:44;;;;;;;;;10.75;9.00;;;;;10.85;100.00;102290.03;4895580;28;49898;-74
2023/01/02 18:09:10;;;;;;;;;11.50;9.75;;;;;10.91;100.00;102302.56;4895871;28;50166;-74
2023/01/02 18:11:35;;;;;;;;;9.50;7.25;;;;;11.02;100.00;102329.28;4896385;28;50213;-75
2023/01/02 18:14:05;;;;;;;;;8.25;7.00;;;;;10.99;100.00;102326.50;4878560;28;49798;-76
2023/01/02 18:16:37;;;;;;;;;10.00;8.75;;;;;10.98;100.00;102336.13;4900273;28;49734;-76
2023/01/02 18:19:05;;;;;;;;;5.50;2.75;;;;;10.97;100.00;102330.81;4902787;28;49979;-74
2023/01/02 18:21:33;;;;;;;;;9.25;6.50;;;;;10.92;100.00;102330.63;4896661;28;49940;-72
2023/01/02 18:24:00;;;;;;;;;7.00;7.00;;;;;10.93;100.00;102334.16;4895234;28;49709;-77
2023/01/02 18:26:26;;;;;;;;;8.75;7.50;;;;;10.40;100.00;102253.84;4878365;28;49813;-72
2023/01/02 18:28:58;;;;;;;;;9.50;6.75;;;;;10.88;100.00;102341.81;4895827;28;50013;-72
2023/01/02 18:31:29;;;;;;;;;11.75;9.00;;;;;10.80;100.00;102330.94;4877142;29;50012;-72
2023/01/02 18:34:01;;;;;;;;;8.00;8.00;;;;;10.54;100.00;102287.78;4895499;28;49702;-76
2023/01/02 18:36:28;;;;;;;;;7.50;7.50;;;;;10.83;100.00;102344.25;4895435;28;50041;-74
2023/01/02 18:39:24;;;;;;;;;10.00;8.50;;;;;10.53;100.00;102309.63;4895351;28;49651;-71
2023/01/02 18:41:50;;;;;;;;;8.25;7.25;;;;;10.74;100.00;102366.56;4908438;28;50089;-73
2023/01/02 18:44:24;;;;;;;;;9.25;8.75;;;;;10.69;100.00;102361.09;4913051;28;49669;-71
2023/01/02 18:46:52;;;;;;;;;8.75;8.25;;;;;10.70;100.00;102367.25;4913236;28;49840;-71
2023/01/02 18:49:21;;;;;;;;;9.25;9.25;;;;;10.61;100.00;102354.59;4913621;28;49950;-70
2023/01/02 18:51:53;;;;;;;;;9.50;9.50;;;;;10.52;100.00;102355.09;4912391;28;49808;-70
2023/01/02 18:54:28;;;;;;;;;9.25;8.50;;;;;10.68;100.00;102382.03;4913149;28;49746;-71
2023/01/02 18:56:56;;;;;;;;;8.75;8.75;;;;;10.66;100.00;102387.22;4913231;28;49911;-80
2023/01/02 18:59:31;;;;;;;;;7.25;7.00;;;;;10.65;100.00;102382.81;4913373;28;49913;-69
2023/01/02 19:02:01;;;;;;;;;8.75;8.75;;;;;10.59;100.00;102379.88;4912751;28;49970;-73
2023/01/02 19:04:36;;;;;;;;;9.00;9.00;;;;;10.49;100.00;102354.03;4913136;28;49816;-76
2023/01/02 19:07:14;;;;;;;;;7.75;7.75;;;;;10.62;100.00;102379.16;4913062;28;49791;-75
2023/01/02 19:09:39;;;;;;;;;8.75;8.00;;;;;10.62;100.00;102377.41;4913134;28;49966;-71
2023/01/02 19:15:39;;;;;;;;;4.50;4.50;;;;;10.45;100.00;102379.25;4912895;28;50003;-73
2023/01/02 19:18:16;;;;;;;;;6.50;6.50;;;;;10.49;100.00;102375.94;4898576;28;49869;-74
2023/01/02 19:20:43;;;;;;;;;5.25;3.75;;;;;9.81;100.00;102271.19;4912882;28;49900;-72
2023/01/02 19:23:36;;;;;;;;;7.50;5.75;;;;;10.55;100.00;102397.22;4912736;28;49778;-72
2023/01/02 19:26:25;;;;;;;;;9.25;7.00;;;;;9.70;100.00;102260.19;4912320;28;49582;-75
2023/01/02 19:29:16;;;;;;;;;9.25;9.25;;;;;10.18;100.00;102364.78;4895387;28;50057;-71
2023/01/02 19:31:42;;;;;;;;;7.50;6.00;;;;;10.53;100.00;102400.63;4912076;28;49780;-71
2023/01/02 19:34:26;;;;;;;;;6.00;6.00;;;;;10.52;100.00;102415.47;4912424;28;50057;-72
2023/01/02 19:37:11;;;;;;;;;6.75;6.75;;;;;10.51;100.00;102412.75;4912540;28;49758;-72
2023/01/02 19:39:49;;;;;;;;;6.25;6.00;;;;;10.51;100.00;102439.00;4912673;28;49725;-78
2023/01/02 19:42:18;;;;;;;;;9.00;8.00;;;;;10.25;100.00;102370.44;4912512;28;49772;-77
2023/01/02 19:44:52;;;;;;;;;7.50;7.50;;;;;9.27;100.00;102219.63;4913229;28;50550;-77
2023/01/02 19:47:20;;;;;;;;;8.75;7.75;;;;;10.51;100.00;102424.16;4912891;28;49730;-84
2023/01/02 19:49:46;;;;;;;;;7.75;4.75;;;;;10.49;100.00;102428.44;4913057;28;49948;-76
2023/01/02 19:52:14;;;;;;;;;9.25;8.50;;;;;10.34;100.00;102390.06;4912287;28;49631;-72
2023/01/02 19:54:40;;;;;;;;;8.50;7.00;;;;;10.47;100.00;102419.59;4912083;28;50563;-73
2023/01/02 19:57:07;;;;;;;;;5.50;4.75;;;;;10.38;100.00;102413.91;4914025;28;49765;-75
2023/01/02 19:59:32;;;;;;;;;5.25;5.25;;;;;10.45;100.00;102426.50;4915850;28;49792;-71
2023/01/02 20:01:58;;;;;;;;;7.75;7.75;;;;;10.45;100.00;102423.00;4915538;28;49829;-75
2023/01/02 20:04:23;;;;;;;;;6.25;4.50;;;;;10.45;100.00;102423.00;4905553;28;60057;-74
2023/01/02 20:06:48;;;;;;;;;6.50;4.75;;;;;10.35;100.00;102410.25;4897438;28;49837;-76
2023/01/02 20:09:18;;;;;;;;;6.25;6.25;;;;;10.43;100.00;102425.53;4901082;28;50058;-76
2023/01/02 20:14:28;;;;;;;;;8.50;7.25;;;;;10.22;100.00;102386.00;4896951;28;50110;-79
2023/01/02 20:16:53;;;;;;;;;9.75;7.00;;;;;10.06;100.00;102359.84;4879990;29;49689;-81
2023/01/02 20:19:18;;;;;;;;;8.50;8.50;;;;;9.28;100.00;102221.41;4896863;28;50018;-77
2023/01/02 20:21:44;;;;;;;;;9.00;7.75;;;;;9.63;100.00;102280.78;4913821;28;50072;-73
2023/01/02 20:24:09;;;;;;;;;6.00;5.75;;;;;10.00;100.00;102356.91;4915381;28;49742;-79
2023/01/02 20:26:34;;;;;;;;;7.00;5.25;;;;;10.16;100.00;102380.47;4895434;29;49958;-81
2023/01/02 20:29:00;;;;;;;;;7.75;6.75;;;;;10.43;100.00;102427.28;4897261;28;49786;-77
2023/01/02 20:31:25;;;;;;;;;4.25;4.25;;;;;10.24;100.00;102399.25;4896976;28;49733;-77
2023/01/02 20:33:51;;;;;;;;;4.75;4.75;;;;;9.27;100.00;102243.19;4897290;28;49981;-84
2023/01/02 20:36:16;;;;;;;;;5.50;4.00;;;;;10.31;100.00;102398.69;4898600;28;49672;-81
2023/01/02 20:38:42;;;;;;;;;7.00;5.25;;;;;9.71;100.00;102303.94;4897457;28;49760;-76
2023/01/02 20:41:07;;;;;;;;;4.50;4.50;;;;;9.16;100.00;102226.91;4899415;28;49983;-75
2023/01/02 20:43:33;;;;;;;;;5.50;5.50;;;;;10.36;100.00;102419.91;4903483;28;50228;-76
2023/01/02 20:45:58;;;;;;;;;8.00;7.00;;;;;10.35;100.00;102447.91;4893491;28;56077;-76
2023/01/02 20:48:23;;;;;;;;;4.50;4.50;;;;;9.77;100.00;102329.56;4902698;28;49768;-75
2023/01/02 20:50:49;;;;;;;;;7.00;5.00;;;;;10.33;100.00;102436.44;4883898;28;49767;-79
2023/01/02 20:53:14;;;;;;;;;5.25;3.00;;;;;9.27;100.00;102251.97;4901280;28;55403;-79
2023/01/02 20:55:39;;;;;;;;;4.50;3.25;;;;;10.34;100.00;102439.97;4896750;28;49866;-80
2023/01/02 20:58:05;;;;;;;;;9.25;7.25;;;;;9.45;100.00;102327.97;4879534;29;49799;-75
2023/01/02 21:00:31;;;;;;;;;6.25;5.25;;;;;10.09;100.00;102417.72;4915162;28;49769;-77